sensor_id;sensor_type;location;lat;lon;timestamp;P1;durP1;ratioP1;P2;durP2;ratioP2
39314;SDS011;28703;44.412;11.918;2024-01-30T00:01:58;61.60;;;42.90;;
39314;SDS011;28703;44.412;11.918;2024-01-30T00:04:24;67.20;;;44.47;;
39314;SDS011;28703;44.412;11.918;2024-01-30T00:06:50;68.00;;;41.28;;
39314;SDS011;28703;44.412;11.918;2024-01-30T00:09:18;85.82;;;41.45;;
39314;SDS011;28703;44.412;11.918;2024-01-30T00:11:44;60.88;;;40.83;;
39314;SDS011;28703;44.412;11.918;2024-01-30T00:14:10;56.53;;;40.28;;
39314;SDS011;28703;44.412;11.918;2024-01-30T00:16:36;58.65;;;40.55;;
39314;SDS011;28703;44.412;11.918;2024-01-30T00:19:02;51.30;;;38.25;;
39314;SDS011;28703;44.412;11.918;2024-01-30T00:21:28;66.43;;;39.90;;
39314;SDS011;28703;44.412;11.918;2024-01-30T00:23:54;78.75;;;39.50;;
39314;SDS011;28703;44.412;11.918;2024-01-30T00:26:20;50.83;;;37.88;;
39314;SDS011;28703;44.412;11.918;2024-01-30T00:28:46;60.92;;;40.25;;
39314;SDS011;28703;44.412;11.918;2024-01-30T00:31:11;57.83;;;37.25;;
39314;SDS011;28703;44.412;11.918;2024-01-30T00:33:41;52.17;;;38.85;;
39314;SDS011;28703;44.412;11.918;2024-01-30T00:36:07;85.93;;;38.00;;
39314;SDS011;28703;44.412;11.918;2024-01-30T00:38:34;51.70;;;39.35;;
39314;SDS011;28703;44.412;11.918;2024-01-30T00:41:00;64.35;;;39.22;;
39314;SDS011;28703;44.412;11.918;2024-01-30T00:43:29;53.85;;;40.05;;
39314;SDS011;28703;44.412;11.918;2024-01-30T00:45:56;54.63;;;40.17;;
39314;SDS011;28703;44.412;11.918;2024-01-30T00:48:23;58.78;;;38.85;;
39314;SDS011;28703;44.412;11.918;2024-01-30T00:50:49;58.08;;;41.03;;
39314;SDS011;28703;44.412;11.918;2024-01-30T00:53:14;54.35;;;39.95;;
39314;SDS011;28703;44.412;11.918;2024-01-30T00:55:40;57.88;;;41.55;;
39314;SDS011;28703;44.412;11.918;2024-01-30T00:58:06;86.07;;;42.50;;
39314;SDS011;28703;44.412;11.918;2024-01-30T01:00:33;59.72;;;42.65;;
39314;SDS011;28703;44.412;11.918;2024-01-30T01:02:59;75.40;;;40.53;;
39314;SDS011;28703;44.412;11.918;2024-01-30T01:05:25;56.70;;;41.55;;
39314;SDS011;28703;44.412;11.918;2024-01-30T01:07:50;60.67;;;41.58;;
39314;SDS011;28703;44.412;11.918;2024-01-30T01:10:17;59.97;;;39.75;;
39314;SDS011;28703;44.412;11.918;2024-01-30T01:12:43;60.15;;;40.72;;
39314;SDS011;28703;44.412;11.918;2024-01-30T01:15:09;56.17;;;39.67;;
39314;SDS011;28703;44.412;11.918;2024-01-30T01:17:36;56.33;;;41.10;;
39314;SDS011;28703;44.412;11.918;2024-01-30T01:20:03;63.78;;;39.70;;
39314;SDS011;28703;44.412;11.918;2024-01-30T01:22:30;65.60;;;38.45;;
39314;SDS011;28703;44.412;11.918;2024-01-30T01:24:56;53.80;;;40.15;;
39314;SDS011;28703;44.412;11.918;2024-01-30T01:27:22;57.90;;;38.17;;
39314;SDS011;28703;44.412;11.918;2024-01-30T01:29:48;50.28;;;37.70;;
39314;SDS011;28703;44.412;11.918;2024-01-30T01:32:13;58.63;;;38.38;;
39314;SDS011;28703;44.412;11.918;2024-01-30T01:34:39;48.88;;;37.92;;
39314;SDS011;28703;44.412;11.918;2024-01-30T01:37:05;47.58;;;37.17;;
39314;SDS011;28703;44.412;11.918;2024-01-30T01:39:32;50.50;;;38.85;;
39314;SDS011;28703;44.412;11.918;2024-01-30T01:41:58;59.20;;;37.17;;
39314;SDS011;28703;44.412;11.918;2024-01-30T01:44:24;57.53;;;36.33;;
39314;SDS011;28703;44.412;11.918;2024-01-30T01:46:50;46.17;;;36.08;;
39314;SDS011;28703;44.412;11.918;2024-01-30T01:49:17;48.15;;;35.63;;
39314;SDS011;28703;44.412;11.918;2024-01-30T01:51:44;75.65;;;35.67;;
39314;SDS011;28703;44.412;11.918;2024-01-30T01:54:12;48.38;;;35.08;;
39314;SDS011;28703;44.412;11.918;2024-01-30T01:56:41;52.40;;;35.53;;
39314;SDS011;28703;44.412;11.918;2024-01-30T01:59:08;46.78;;;34.88;;
39314;SDS011;28703;44.412;11.918;2024-01-30T02:01:35;41.35;;;32.70;;
39314;SDS011;28703;44.412;11.918;2024-01-30T02:04:02;47.03;;;32.97;;
39314;SDS011;28703;44.412;11.918;2024-01-30T02:06:28;43.53;;;33.95;;
39314;SDS011;28703;44.412;11.918;2024-01-30T02:08:54;39.72;;;30.88;;
39314;SDS011;28703;44.412;11.918;2024-01-30T02:11:20;35.47;;;29.25;;
39314;SDS011;28703;44.412;11.918;2024-01-30T02:13:48;61.13;;;30.40;;
39314;SDS011;28703;44.412;11.918;2024-01-30T02:16:15;38.35;;;30.30;;
39314;SDS011;28703;44.412;11.918;2024-01-30T02:18:42;65.32;;;30.70;;
39314;SDS011;28703;44.412;11.918;2024-01-30T02:21:11;39.65;;;29.17;;
39314;SDS011;28703;44.412;11.918;2024-01-30T02:23:37;42.33;;;31.80;;
39314;SDS011;28703;44.412;11.918;2024-01-30T02:26:04;44.08;;;31.10;;
39314;SDS011;28703;44.412;11.918;2024-01-30T02:28:30;39.20;;;31.00;;
39314;SDS011;28703;44.412;11.918;2024-01-30T02:30:56;39.40;;;31.88;;
39314;SDS011;28703;44.412;11.918;2024-01-30T02:33:22;49.92;;;33.83;;
39314;SDS011;28703;44.412;11.918;2024-01-30T02:35:48;44.33;;;31.70;;
39314;SDS011;28703;44.412;11.918;2024-01-30T02:38:14;49.95;;;31.88;;
39314;SDS011;28703;44.412;11.918;2024-01-30T02:40:41;45.38;;;32.25;;
39314;SDS011;28703;44.412;11.918;2024-01-30T02:43:06;40.38;;;31.23;;
39314;SDS011;28703;44.412;11.918;2024-01-30T02:45:32;37.70;;;30.30;;
39314;SDS011;28703;44.412;11.918;2024-01-30T02:47:58;40.50;;;30.58;;
39314;SDS011;28703;44.412;11.918;2024-01-30T02:50:24;36.33;;;30.48;;
39314;SDS011;28703;44.412;11.918;2024-01-30T02:52:49;46.22;;;30.77;;
39314;SDS011;28703;44.412;11.918;2024-01-30T02:55:15;38.38;;;30.00;;
39314;SDS011;28703;44.412;11.918;2024-01-30T02:57:44;38.97;;;31.00;;
39314;SDS011;28703;44.412;11.918;2024-01-30T03:00:10;42.22;;;29.83;;
39314;SDS011;28703;44.412;11.918;2024-01-30T03:02:37;40.55;;;30.23;;
39314;SDS011;28703;44.412;11.918;2024-01-30T03:05:03;37.22;;;28.92;;
39314;SDS011;28703;44.412;11.918;2024-01-30T03:07:29;39.20;;;28.58;;
39314;SDS011;28703;44.412;11.918;2024-01-30T03:09:55;37.40;;;29.85;;
39314;SDS011;28703;44.412;11.918;2024-01-30T03:12:21;43.13;;;28.85;;
39314;SDS011;28703;44.412;11.918;2024-01-30T03:14:47;40.33;;;29.52;;
39314;SDS011;28703;44.412;11.918;2024-01-30T03:17:14;38.35;;;29.85;;
39314;SDS011;28703;44.412;11.918;2024-01-30T03:19:40;40.67;;;30.23;;
39314;SDS011;28703;44.412;11.918;2024-01-30T03:22:06;35.03;;;28.67;;
39314;SDS011;28703;44.412;11.918;2024-01-30T03:24:32;34.40;;;28.65;;
39314;SDS011;28703;44.412;11.918;2024-01-30T03:26:58;39.22;;;28.27;;
39314;SDS011;28703;44.412;11.918;2024-01-30T03:29:24;35.60;;;28.80;;
39314;SDS011;28703;44.412;11.918;2024-01-30T03:31:50;37.80;;;28.05;;
39314;SDS011;28703;44.412;11.918;2024-01-30T03:34:16;36.42;;;29.67;;
39314;SDS011;28703;44.412;11.918;2024-01-30T03:36:42;37.42;;;29.17;;
39314;SDS011;28703;44.412;11.918;2024-01-30T03:39:08;36.85;;;29.85;;
39314;SDS011;28703;44.412;11.918;2024-01-30T03:41:34;32.75;;;28.45;;
39314;SDS011;28703;44.412;11.918;2024-01-30T03:43:59;35.67;;;28.23;;
39314;SDS011;28703;44.412;11.918;2024-01-30T03:46:25;42.00;;;29.48;;
39314;SDS011;28703;44.412;11.918;2024-01-30T03:48:51;41.45;;;29.98;;
39314;SDS011;28703;44.412;11.918;2024-01-30T03:51:17;47.42;;;32.05;;
39314;SDS011;28703;44.412;11.918;2024-01-30T03:53:43;40.72;;;31.02;;
39314;SDS011;28703;44.412;11.918;2024-01-30T03:56:09;37.55;;;29.80;;
39314;SDS011;28703;44.412;11.918;2024-01-30T03:58:35;31.30;;;27.90;;
39314;SDS011;28703;44.412;11.918;2024-01-30T04:01:01;33.42;;;29.52;;
39314;SDS011;28703;44.412;11.918;2024-01-30T04:03:27;32.08;;;26.33;;
39314;SDS011;28703;44.412;11.918;2024-01-30T04:05:53;39.45;;;26.02;;
39314;SDS011;28703;44.412;11.918;2024-01-30T04:08:19;48.25;;;25.98;;
39314;SDS011;28703;44.412;11.918;2024-01-30T04:10:46;29.23;;;25.27;;
39314;SDS011;28703;44.412;11.918;2024-01-30T04:13:12;33.45;;;27.10;;
39314;SDS011;28703;44.412;11.918;2024-01-30T04:15:38;34.97;;;27.50;;
39314;SDS011;28703;44.412;11.918;2024-01-30T04:18:04;34.88;;;29.35;;
39314;SDS011;28703;44.412;11.918;2024-01-30T04:20:30;38.80;;;27.08;;
39314;SDS011;28703;44.412;11.918;2024-01-30T04:22:56;35.35;;;28.23;;
39314;SDS011;28703;44.412;11.918;2024-01-30T04:25:22;36.88;;;27.75;;
39314;SDS011;28703;44.412;11.918;2024-01-30T04:27:48;39.15;;;26.95;;
39314;SDS011;28703;44.412;11.918;2024-01-30T04:30:14;36.85;;;29.17;;
39314;SDS011;28703;44.412;11.918;2024-01-30T04:32:40;32.65;;;27.42;;
39314;SDS011;28703;44.412;11.918;2024-01-30T04:35:06;36.58;;;25.88;;
39314;SDS011;28703;44.412;11.918;2024-01-30T04:37:32;28.08;;;24.83;;
39314;SDS011;28703;44.412;11.918;2024-01-30T04:39:58;28.77;;;24.30;;
39314;SDS011;28703;44.412;11.918;2024-01-30T04:42:23;31.15;;;26.30;;
39314;SDS011;28703;44.412;11.918;2024-01-30T04:44:49;29.45;;;24.42;;
39314;SDS011;28703;44.412;11.918;2024-01-30T04:47:15;28.20;;;25.10;;
39314;SDS011;28703;44.412;11.918;2024-01-30T04:49:42;27.23;;;23.67;;
39314;SDS011;28703;44.412;11.918;2024-01-30T04:52:08;28.00;;;23.92;;
39314;SDS011;28703;44.412;11.918;2024-01-30T04:54:34;26.38;;;23.33;;
39314;SDS011;28703;44.412;11.918;2024-01-30T04:57:01;26.38;;;23.27;;
39314;SDS011;28703;44.412;11.918;2024-01-30T04:59:27;26.95;;;24.02;;
39314;SDS011;28703;44.412;11.918;2024-01-30T05:01:53;26.40;;;22.77;;
39314;SDS011;28703;44.412;11.918;2024-01-30T05:04:19;27.02;;;23.95;;
39314;SDS011;28703;44.412;11.918;2024-01-30T05:06:45;29.60;;;25.67;;
39314;SDS011;28703;44.412;11.918;2024-01-30T05:09:11;30.05;;;26.13;;
39314;SDS011;28703;44.412;11.918;2024-01-30T05:11:38;29.02;;;24.23;;
39314;SDS011;28703;44.412;11.918;2024-01-30T05:14:05;32.88;;;26.60;;
39314;SDS011;28703;44.412;11.918;2024-01-30T05:16:31;29.13;;;25.25;;
39314;SDS011;28703;44.412;11.918;2024-01-30T05:18:57;31.52;;;26.40;;
39314;SDS011;28703;44.412;11.918;2024-01-30T05:21:23;32.42;;;27.52;;
39314;SDS011;28703;44.412;11.918;2024-01-30T05:23:49;32.97;;;26.52;;
39314;SDS011;28703;44.412;11.918;2024-01-30T05:26:15;33.33;;;27.40;;
39314;SDS011;28703;44.412;11.918;2024-01-30T05:28:40;34.08;;;27.88;;
39314;SDS011;28703;44.412;11.918;2024-01-30T05:31:06;35.50;;;28.17;;
39314;SDS011;28703;44.412;11.918;2024-01-30T05:33:33;34.05;;;28.00;;
39314;SDS011;28703;44.412;11.918;2024-01-30T05:35:59;36.00;;;28.55;;
39314;SDS011;28703;44.412;11.918;2024-01-30T05:38:24;39.95;;;30.27;;
39314;SDS011;28703;44.412;11.918;2024-01-30T05:40:50;37.83;;;29.67;;
39314;SDS011;28703;44.412;11.918;2024-01-30T05:43:16;39.10;;;29.80;;
39314;SDS011;28703;44.412;11.918;2024-01-30T05:45:42;43.88;;;31.77;;
39314;SDS011;28703;44.412;11.918;2024-01-30T05:48:08;40.88;;;31.70;;
39314;SDS011;28703;44.412;11.918;2024-01-30T05:50:33;42.88;;;30.98;;
39314;SDS011;28703;44.412;11.918;2024-01-30T05:52:59;39.70;;;31.17;;
39314;SDS011;28703;44.412;11.918;2024-01-30T05:55:25;48.35;;;32.22;;
39314;SDS011;28703;44.412;11.918;2024-01-30T05:57:51;45.40;;;30.73;;
39314;SDS011;28703;44.412;11.918;2024-01-30T06:00:17;43.38;;;32.55;;
39314;SDS011;28703;44.412;11.918;2024-01-30T06:02:43;49.05;;;32.80;;
39314;SDS011;28703;44.412;11.918;2024-01-30T06:05:09;40.45;;;31.20;;
39314;SDS011;28703;44.412;11.918;2024-01-30T06:07:35;39.33;;;28.23;;
39314;SDS011;28703;44.412;11.918;2024-01-30T06:10:01;34.45;;;26.15;;
39314;SDS011;28703;44.412;11.918;2024-01-30T06:12:27;38.10;;;27.30;;
39314;SDS011;28703;44.412;11.918;2024-01-30T06:14:53;45.92;;;28.88;;
39314;SDS011;28703;44.412;11.918;2024-01-30T06:17:22;37.90;;;26.67;;
39314;SDS011;28703;44.412;11.918;2024-01-30T06:19:48;35.80;;;27.48;;
39314;SDS011;28703;44.412;11.918;2024-01-30T06:22:15;40.10;;;28.17;;
39314;SDS011;28703;44.412;11.918;2024-01-30T06:24:41;38.13;;;27.75;;
39314;SDS011;28703;44.412;11.918;2024-01-30T06:27:07;37.97;;;28.30;;
39314;SDS011;28703;44.412;11.918;2024-01-30T06:29:33;37.35;;;28.50;;
39314;SDS011;28703;44.412;11.918;2024-01-30T06:31:59;36.70;;;27.70;;
39314;SDS011;28703;44.412;11.918;2024-01-30T06:34:25;34.40;;;27.70;;
39314;SDS011;28703;44.412;11.918;2024-01-30T06:36:51;38.75;;;30.25;;
39314;SDS011;28703;44.412;11.918;2024-01-30T06:39:17;52.00;;;28.65;;
39314;SDS011;28703;44.412;11.918;2024-01-30T06:41:43;33.75;;;25.17;;
39314;SDS011;28703;44.412;11.918;2024-01-30T06:44:11;31.48;;;24.50;;
39314;SDS011;28703;44.412;11.918;2024-01-30T06:46:38;30.50;;;25.73;;
39314;SDS011;28703;44.412;11.918;2024-01-30T06:49:04;33.60;;;25.10;;
39314;SDS011;28703;44.412;11.918;2024-01-30T06:51:30;29.70;;;24.80;;
39314;SDS011;28703;44.412;11.918;2024-01-30T06:53:56;32.35;;;25.75;;
39314;SDS011;28703;44.412;11.918;2024-01-30T06:56:22;36.58;;;27.20;;
39314;SDS011;28703;44.412;11.918;2024-01-30T06:58:48;33.70;;;25.98;;
39314;SDS011;28703;44.412;11.918;2024-01-30T07:01:14;34.47;;;25.42;;
39314;SDS011;28703;44.412;11.918;2024-01-30T07:03:41;39.53;;;27.00;;
39314;SDS011;28703;44.412;11.918;2024-01-30T07:06:07;35.78;;;26.98;;
39314;SDS011;28703;44.412;11.918;2024-01-30T07:08:33;37.50;;;27.77;;
39314;SDS011;28703;44.412;11.918;2024-01-30T07:10:59;38.67;;;27.63;;
39314;SDS011;28703;44.412;11.918;2024-01-30T07:13:25;33.50;;;26.38;;
39314;SDS011;28703;44.412;11.918;2024-01-30T07:15:51;37.03;;;28.98;;
39314;SDS011;28703;44.412;11.918;2024-01-30T07:18:16;40.72;;;28.35;;
39314;SDS011;28703;44.412;11.918;2024-01-30T07:20:42;42.65;;;30.33;;
39314;SDS011;28703;44.412;11.918;2024-01-30T07:23:14;39.35;;;28.45;;
39314;SDS011;28703;44.412;11.918;2024-01-30T07:25:42;42.28;;;31.05;;
39314;SDS011;28703;44.412;11.918;2024-01-30T07:28:09;42.92;;;29.17;;
39314;SDS011;28703;44.412;11.918;2024-01-30T07:30:36;41.13;;;29.27;;
39314;SDS011;28703;44.412;11.918;2024-01-30T07:33:02;45.55;;;30.00;;
39314;SDS011;28703;44.412;11.918;2024-01-30T07:35:28;41.05;;;29.42;;
39314;SDS011;28703;44.412;11.918;2024-01-30T07:37:53;51.90;;;33.55;;
39314;SDS011;28703;44.412;11.918;2024-01-30T07:40:19;52.75;;;35.53;;
39314;SDS011;28703;44.412;11.918;2024-01-30T07:42:45;51.60;;;35.13;;
39314;SDS011;28703;44.412;11.918;2024-01-30T07:45:11;53.15;;;37.67;;
39314;SDS011;28703;44.412;11.918;2024-01-30T07:47:37;55.47;;;38.85;;
39314;SDS011;28703;44.412;11.918;2024-01-30T07:50:02;45.92;;;33.40;;
39314;SDS011;28703;44.412;11.918;2024-01-30T07:52:28;43.97;;;32.20;;
39314;SDS011;28703;44.412;11.918;2024-01-30T07:54:54;41.70;;;31.45;;
39314;SDS011;28703;44.412;11.918;2024-01-30T07:57:20;43.10;;;32.15;;
39314;SDS011;28703;44.412;11.918;2024-01-30T07:59:46;45.85;;;32.78;;
39314;SDS011;28703;44.412;11.918;2024-01-30T08:02:12;44.78;;;33.70;;
39314;SDS011;28703;44.412;11.918;2024-01-30T08:04:38;43.05;;;31.75;;
39314;SDS011;28703;44.412;11.918;2024-01-30T08:07:04;49.35;;;32.63;;
39314;SDS011;28703;44.412;11.918;2024-01-30T08:09:30;44.92;;;32.97;;
39314;SDS011;28703;44.412;11.918;2024-01-30T08:11:56;49.42;;;32.65;;
39314;SDS011;28703;44.412;11.918;2024-01-30T08:14:22;41.63;;;30.45;;
39314;SDS011;28703;44.412;11.918;2024-01-30T08:16:48;40.67;;;31.10;;
39314;SDS011;28703;44.412;11.918;2024-01-30T08:19:16;45.47;;;31.42;;
39314;SDS011;28703;44.412;11.918;2024-01-30T08:21:42;42.80;;;30.15;;
39314;SDS011;28703;44.412;11.918;2024-01-30T08:24:08;47.20;;;32.75;;
39314;SDS011;28703;44.412;11.918;2024-01-30T08:26:34;44.95;;;32.45;;
39314;SDS011;28703;44.412;11.918;2024-01-30T08:29:00;40.67;;;32.25;;
39314;SDS011;28703;44.412;11.918;2024-01-30T08:31:27;47.58;;;32.42;;
39314;SDS011;28703;44.412;11.918;2024-01-30T08:33:53;42.88;;;31.92;;
39314;SDS011;28703;44.412;11.918;2024-01-30T08:36:19;42.40;;;32.63;;
39314;SDS011;28703;44.412;11.918;2024-01-30T08:38:45;48.53;;;35.72;;
39314;SDS011;28703;44.412;11.918;2024-01-30T08:41:11;45.03;;;32.15;;
39314;SDS011;28703;44.412;11.918;2024-01-30T08:43:37;53.22;;;34.08;;
39314;SDS011;28703;44.412;11.918;2024-01-30T08:46:02;46.00;;;33.72;;
39314;SDS011;28703;44.412;11.918;2024-01-30T08:48:28;50.25;;;34.95;;
39314;SDS011;28703;44.412;11.918;2024-01-30T08:50:54;45.42;;;34.00;;
39314;SDS011;28703;44.412;11.918;2024-01-30T08:53:20;47.08;;;33.53;;
39314;SDS011;28703;44.412;11.918;2024-01-30T08:55:46;47.67;;;35.30;;
39314;SDS011;28703;44.412;11.918;2024-01-30T08:58:12;42.80;;;32.58;;
39314;SDS011;28703;44.412;11.918;2024-01-30T09:00:38;41.97;;;32.53;;
39314;SDS011;28703;44.412;11.918;2024-01-30T09:03:04;43.13;;;33.30;;
39314;SDS011;28703;44.412;11.918;2024-01-30T09:05:29;43.38;;;32.92;;
39314;SDS011;28703;44.412;11.918;2024-01-30T09:07:55;44.60;;;33.17;;
39314;SDS011;28703;44.412;11.918;2024-01-30T09:10:21;45.40;;;33.40;;
39314;SDS011;28703;44.412;11.918;2024-01-30T09:12:47;49.15;;;35.75;;
39314;SDS011;28703;44.412;11.918;2024-01-30T09:15:14;47.97;;;33.95;;
39314;SDS011;28703;44.412;11.918;2024-01-30T09:17:40;49.78;;;34.08;;
39314;SDS011;28703;44.412;11.918;2024-01-30T09:20:06;47.63;;;35.25;;
39314;SDS011;28703;44.412;11.918;2024-01-30T09:22:33;51.08;;;36.08;;
39314;SDS011;28703;44.412;11.918;2024-01-30T09:24:59;51.45;;;35.97;;
39314;SDS011;28703;44.412;11.918;2024-01-30T09:27:25;50.78;;;37.42;;
39314;SDS011;28703;44.412;11.918;2024-01-30T09:29:51;51.85;;;37.17;;
39314;SDS011;28703;44.412;11.918;2024-01-30T09:32:17;52.10;;;37.55;;
39314;SDS011;28703;44.412;11.918;2024-01-30T09:34:43;50.10;;;37.47;;
39314;SDS011;28703;44.412;11.918;2024-01-30T09:37:09;55.28;;;38.53;;
39314;SDS011;28703;44.412;11.918;2024-01-30T09:39:35;57.15;;;37.42;;
39314;SDS011;28703;44.412;11.918;2024-01-30T09:44:50;57.92;;;40.03;;
39314;SDS011;28703;44.412;11.918;2024-01-30T09:47:19;59.47;;;40.67;;
39314;SDS011;28703;44.412;11.918;2024-01-30T09:49:45;58.50;;;39.85;;
39314;SDS011;28703;44.412;11.918;2024-01-30T09:52:13;58.60;;;42.30;;
39314;SDS011;28703;44.412;11.918;2024-01-30T09:54:40;54.65;;;39.75;;
39314;SDS011;28703;44.412;11.918;2024-01-30T09:57:07;49.40;;;36.80;;
39314;SDS011;28703;44.412;11.918;2024-01-30T09:59:33;58.33;;;39.17;;
39314;SDS011;28703;44.412;11.918;2024-01-30T10:01:59;51.53;;;37.35;;
39314;SDS011;28703;44.412;11.918;2024-01-30T10:04:25;47.47;;;36.47;;
39314;SDS011;28703;44.412;11.918;2024-01-30T10:06:51;49.20;;;37.38;;
39314;SDS011;28703;44.412;11.918;2024-01-30T10:09:17;46.58;;;36.75;;
39314;SDS011;28703;44.412;11.918;2024-01-30T10:11:43;51.47;;;35.78;;
39314;SDS011;28703;44.412;11.918;2024-01-30T10:14:09;53.45;;;36.08;;
39314;SDS011;28703;44.412;11.918;2024-01-30T10:16:35;47.70;;;35.58;;
39314;SDS011;28703;44.412;11.918;2024-01-30T10:19:00;51.40;;;34.72;;
39314;SDS011;28703;44.412;11.918;2024-01-30T10:21:29;50.90;;;37.20;;
39314;SDS011;28703;44.412;11.918;2024-01-30T10:23:55;46.78;;;36.08;;
39314;SDS011;28703;44.412;11.918;2024-01-30T10:26:21;46.13;;;34.95;;
39314;SDS011;28703;44.412;11.918;2024-01-30T10:28:47;44.58;;;33.83;;
39314;SDS011;28703;44.412;11.918;2024-01-30T10:31:17;47.03;;;35.45;;
39314;SDS011;28703;44.412;11.918;2024-01-30T10:33:44;53.08;;;35.78;;
39314;SDS011;28703;44.412;11.918;2024-01-30T10:36:10;55.72;;;36.60;;
39314;SDS011;28703;44.412;11.918;2024-01-30T10:38:40;45.63;;;34.65;;
39314;SDS011;28703;44.412;11.918;2024-01-30T10:41:07;53.00;;;37.65;;
39314;SDS011;28703;44.412;11.918;2024-01-30T10:43:40;47.42;;;34.38;;
39314;SDS011;28703;44.412;11.918;2024-01-30T10:48:42;52.38;;;37.50;;
39314;SDS011;28703;44.412;11.918;2024-01-30T10:51:10;47.53;;;34.55;;
39314;SDS011;28703;44.412;11.918;2024-01-30T10:53:38;51.20;;;36.15;;
39314;SDS011;28703;44.412;11.918;2024-01-30T10:56:04;46.00;;;35.35;;
39314;SDS011;28703;44.412;11.918;2024-01-30T10:58:31;49.55;;;36.28;;
39314;SDS011;28703;44.412;11.918;2024-01-30T11:00:56;51.05;;;37.15;;
39314;SDS011;28703;44.412;11.918;2024-01-30T11:03:24;50.00;;;36.50;;
39314;SDS011;28703;44.412;11.918;2024-01-30T11:05:50;55.38;;;37.20;;
39314;SDS011;28703;44.412;11.918;2024-01-30T11:08:25;44.28;;;34.95;;
39314;SDS011;28703;44.412;11.918;2024-01-30T11:10:56;48.78;;;36.40;;
39314;SDS011;28703;44.412;11.918;2024-01-30T11:13:26;49.75;;;37.30;;
39314;SDS011;28703;44.412;11.918;2024-01-30T11:15:54;54.95;;;40.00;;
39314;SDS011;28703;44.412;11.918;2024-01-30T11:18:23;53.38;;;41.38;;
39314;SDS011;28703;44.412;11.918;2024-01-30T11:20:56;59.08;;;43.80;;
39314;SDS011;28703;44.412;11.918;2024-01-30T11:23:23;63.22;;;46.20;;
39314;SDS011;28703;44.412;11.918;2024-01-30T11:25:52;62.92;;;45.00;;
39314;SDS011;28703;44.412;11.918;2024-01-30T11:28:18;63.85;;;46.20;;
39314;SDS011;28703;44.412;11.918;2024-01-30T11:30:45;57.95;;;41.90;;
39314;SDS011;28703;44.412;11.918;2024-01-30T11:33:13;57.13;;;42.42;;
39314;SDS011;28703;44.412;11.918;2024-01-30T11:35:40;59.03;;;43.22;;
39314;SDS011;28703;44.412;11.918;2024-01-30T11:38:07;56.50;;;44.05;;
39314;SDS011;28703;44.412;11.918;2024-01-30T11:40:34;60.00;;;44.15;;
39314;SDS011;28703;44.412;11.918;2024-01-30T11:43:02;61.03;;;44.75;;
39314;SDS011;28703;44.412;11.918;2024-01-30T11:45:29;57.25;;;42.70;;
39314;SDS011;28703;44.412;11.918;2024-01-30T11:47:56;56.20;;;39.78;;
39314;SDS011;28703;44.412;11.918;2024-01-30T11:50:23;48.97;;;38.15;;
39314;SDS011;28703;44.412;11.918;2024-01-30T11:52:50;50.40;;;38.22;;
39314;SDS011;28703;44.412;11.918;2024-01-30T11:55:16;61.60;;;40.17;;
39314;SDS011;28703;44.412;11.918;2024-01-30T11:57:42;52.88;;;38.95;;
39314;SDS011;28703;44.412;11.918;2024-01-30T12:00:16;56.78;;;40.35;;
39314;SDS011;28703;44.412;11.918;2024-01-30T12:02:49;54.78;;;40.85;;
39314;SDS011;28703;44.412;11.918;2024-01-30T12:05:23;57.42;;;40.15;;
39314;SDS011;28703;44.412;11.918;2024-01-30T12:07:49;53.10;;;38.90;;
39314;SDS011;28703;44.412;11.918;2024-01-30T12:10:15;52.58;;;40.08;;
39314;SDS011;28703;44.412;11.918;2024-01-30T12:12:46;57.90;;;41.15;;
39314;SDS011;28703;44.412;11.918;2024-01-30T12:15:13;57.28;;;42.58;;
39314;SDS011;28703;44.412;11.918;2024-01-30T12:17:39;56.97;;;41.30;;
39314;SDS011;28703;44.412;11.918;2024-01-30T12:22:34;53.00;;;38.80;;
39314;SDS011;28703;44.412;11.918;2024-01-30T12:25:02;54.53;;;37.95;;
39314;SDS011;28703;44.412;11.918;2024-01-30T12:27:29;55.00;;;37.95;;
39314;SDS011;28703;44.412;11.918;2024-01-30T12:29:56;56.83;;;38.75;;
39314;SDS011;28703;44.412;11.918;2024-01-30T12:32:25;53.10;;;38.85;;
39314;SDS011;28703;44.412;11.918;2024-01-30T12:34:55;52.85;;;37.15;;
39314;SDS011;28703;44.412;11.918;2024-01-30T12:37:22;53.50;;;38.78;;
39314;SDS011;28703;44.412;11.918;2024-01-30T12:39:51;55.75;;;38.40;;
39314;SDS011;28703;44.412;11.918;2024-01-30T12:42:19;56.13;;;41.35;;
39314;SDS011;28703;44.412;11.918;2024-01-30T12:44:46;60.97;;;40.60;;
39314;SDS011;28703;44.412;11.918;2024-01-30T12:47:13;54.20;;;40.35;;
39314;SDS011;28703;44.412;11.918;2024-01-30T12:49:44;55.08;;;37.97;;
39314;SDS011;28703;44.412;11.918;2024-01-30T12:52:10;57.45;;;41.17;;
39314;SDS011;28703;44.412;11.918;2024-01-30T12:54:39;55.30;;;38.08;;
39314;SDS011;28703;44.412;11.918;2024-01-30T12:57:05;57.35;;;39.92;;
39314;SDS011;28703;44.412;11.918;2024-01-30T12:59:31;56.97;;;40.67;;
39314;SDS011;28703;44.412;11.918;2024-01-30T13:01:58;56.33;;;41.38;;
39314;SDS011;28703;44.412;11.918;2024-01-30T13:04:25;50.83;;;37.88;;
39314;SDS011;28703;44.412;11.918;2024-01-30T13:06:52;57.63;;;39.45;;
39314;SDS011;28703;44.412;11.918;2024-01-30T13:09:17;58.47;;;41.05;;
39314;SDS011;28703;44.412;11.918;2024-01-30T13:11:43;64.40;;;43.75;;
39314;SDS011;28703;44.412;11.918;2024-01-30T13:14:09;63.75;;;44.88;;
39314;SDS011;28703;44.412;11.918;2024-01-30T13:16:35;60.20;;;43.17;;
39314;SDS011;28703;44.412;11.918;2024-01-30T13:19:01;66.10;;;43.10;;
39314;SDS011;28703;44.412;11.918;2024-01-30T13:21:27;68.00;;;44.70;;
39314;SDS011;28703;44.412;11.918;2024-01-30T13:23:53;66.18;;;43.92;;
39314;SDS011;28703;44.412;11.918;2024-01-30T13:26:22;66.97;;;46.40;;
39314;SDS011;28703;44.412;11.918;2024-01-30T13:28:48;69.68;;;44.75;;
39314;SDS011;28703;44.412;11.918;2024-01-30T13:31:14;64.55;;;43.00;;
39314;SDS011;28703;44.412;11.918;2024-01-30T13:33:41;63.08;;;43.88;;
39314;SDS011;28703;44.412;11.918;2024-01-30T13:36:10;67.75;;;45.20;;
39314;SDS011;28703;44.412;11.918;2024-01-30T13:38:37;63.55;;;44.25;;
39314;SDS011;28703;44.412;11.918;2024-01-30T13:41:04;66.05;;;43.75;;
39314;SDS011;28703;44.412;11.918;2024-01-30T13:43:30;63.70;;;43.85;;
39314;SDS011;28703;44.412;11.918;2024-01-30T13:45:56;66.13;;;44.15;;
39314;SDS011;28703;44.412;11.918;2024-01-30T13:48:22;67.47;;;44.92;;
39314;SDS011;28703;44.412;11.918;2024-01-30T13:50:48;64.55;;;44.40;;
39314;SDS011;28703;44.412;11.918;2024-01-30T13:53:13;69.32;;;45.75;;
39314;SDS011;28703;44.412;11.918;2024-01-30T13:55:39;58.65;;;41.90;;
39314;SDS011;28703;44.412;11.918;2024-01-30T13:58:05;65.75;;;43.92;;
39314;SDS011;28703;44.412;11.918;2024-01-30T14:00:32;67.25;;;43.05;;
39314;SDS011;28703;44.412;11.918;2024-01-30T14:02:59;64.55;;;42.97;;
39314;SDS011;28703;44.412;11.918;2024-01-30T14:05:25;70.97;;;46.55;;
39314;SDS011;28703;44.412;11.918;2024-01-30T14:07:53;64.10;;;43.13;;
39314;SDS011;28703;44.412;11.918;2024-01-30T14:10:19;67.80;;;45.55;;
39314;SDS011;28703;44.412;11.918;2024-01-30T14:12:45;65.97;;;45.47;;